Time;durP1;ratioP1;P1;durP2;ratioP2;P2;SDS_P1;SDS_P2;PMS_P1;PMS_P2;Temp;Humidity;BMP_temperature;BMP_pressure;BME280_temperature;BME280_humidity;BME280_pressure;Samples;Min_cycle;Max_cycle;Signal;HPM_P1;HPM_P2
2023/03/05 00:01:23;;;;;;;4.07;1.60;;;;;;;0.62;100.00;98703.63;4158660;28;20048;-73
2023/03/05 00:03:24;;;;;;;5.60;1.73;;;;;;;0.69;100.00;98698.56;4157771;28;20056;-73
2023/03/05 00:05:24;;;;;;;3.60;1.85;;;;;;;0.66;100.00;98695.66;4156515;28;20049;-73
2023/03/05 00:07:24;;;;;;;3.38;1.67;;;;;;;0.68;100.00;98693.44;4157305;28;20132;-73
2023/03/05 00:09:25;;;;;;;5.70;1.92;;;;;;;0.69;100.00;98693.13;4190308;28;20119;-73
2023/03/05 00:11:28;;;;;;;6.20;2.15;;;;;;;0.76;100.00;98695.44;4158792;28;20111;-73
2023/03/05 00:13:29;;;;;;;3.35;1.77;;;;;;;0.75;100.00;98700.06;4156736;28;20180;-73
2023/03/05 00:15:29;;;;;;;3.78;1.80;;;;;;;0.77;100.00;98691.59;4158427;28;20868;-73
2023/03/05 00:17:30;;;;;;;4.57;2.00;;;;;;;0.75;100.00;98705.53;4158947;28;20124;-73
2023/03/05 00:19:30;;;;;;;4.18;2.00;;;;;;;0.75;100.00;98694.63;4155694;28;20124;-73
2023/03/05 00:21:37;;;;;;;4.72;1.50;;;;;;;0.69;100.00;98690.41;4158593;28;20131;-73
2023/03/05 00:23:37;;;;;;;5.97;1.67;;;;;;;0.70;100.00;98691.22;4154952;28;20076;-73
2023/03/05 00:25:39;;;;;;;3.63;1.50;;;;;;;0.66;100.00;98682.03;4156594;28;20037;-73
2023/03/05 00:27:39;;;;;;;4.80;1.90;;;;;;;0.64;100.00;98692.44;4157990;28;20057;-73
2023/03/05 00:29:39;;;;;;;3.97;1.50;;;;;;;0.60;100.00;98688.72;4158575;28;20596;-74
2023/03/05 00:31:40;;;;;;;6.63;1.75;;;;;;;0.57;100.00;98676.50;4159044;28;20484;-73
2023/03/05 00:33:40;;;;;;;9.25;2.45;;;;;;;0.53;100.00;98676.34;4158070;28;20033;-74
2023/03/05 00:35:45;;;;;;;7.85;1.90;;;;;;;0.53;100.00;98675.53;4158531;28;20073;-73
2023/03/05 00:37:45;;;;;;;3.90;1.60;;;;;;;0.53;100.00;98668.16;4158504;28;20381;-74
2023/03/05 00:39:45;;;;;;;4.40;1.60;;;;;;;0.54;100.00;98672.50;4159563;28;20085;-73
2023/03/05 00:41:47;;;;;;;6.10;2.25;;;;;;;0.50;100.00;98666.06;4158533;28;20041;-73
2023/03/05 00:43:47;;;;;;;2.20;1.60;;;;;;;0.48;100.00;98670.19;4158383;28;20079;-73
2023/03/05 00:45:47;;;;;;;2.30;1.77;;;;;;;0.57;100.00;98660.97;4159389;28;20049;-73
2023/03/05 00:47:48;;;;;;;5.07;2.00;;;;;;;0.55;100.00;98663.22;4158845;28;20045;-73
2023/03/05 00:49:48;;;;;;;6.03;1.88;;;;;;;0.56;100.00;98664.81;4159149;28;20054;-73
2023/03/05 00:51:48;;;;;;;4.43;1.83;;;;;;;0.55;100.00;98668.66;4159145;28;20045;-73
2023/03/05 00:53:49;;;;;;;4.75;1.50;;;;;;;0.52;100.00;98652.94;4158206;28;20096;-73
2023/03/05 00:55:49;;;;;;;4.82;1.65;;;;;;;0.50;100.00;98666.06;4158676;28;20079;-73
2023/03/05 00:57:49;;;;;;;2.85;2.03;;;;;;;0.49;100.00;98660.91;4158761;28;20048;-73
2023/03/05 00:59:50;;;;;;;6.95;2.15;;;;;;;0.47;100.00;98653.06;4157328;28;20044;-73
2023/03/05 01:01:50;;;;;;;4.93;1.85;;;;;;;0.48;100.00;98657.38;4158114;28;20048;-74
2023/03/05 01:03:51;;;;;;;6.50;1.95;;;;;;;0.49;100.00;98652.75;4156392;28;20041;-74
2023/03/05 01:05:51;;;;;;;7.25;2.35;;;;;;;0.51;100.00;98648.63;4158558;28;20072;-73
2023/03/05 01:07:53;;;;;;;8.93;3.97;;;;;;;0.46;100.00;98640.56;4157575;28;20049;-73
2023/03/05 01:09:53;;;;;;;10.17;3.93;;;;;;;0.44;100.00;98642.78;4158315;28;20033;-73
2023/03/05 01:11:53;;;;;;;11.35;4.63;;;;;;;0.43;100.00;98638.47;4158532;28;20053;-73
2023/03/05 01:13:54;;;;;;;8.63;4.40;;;;;;;0.42;100.00;98639.56;4158050;28;20335;-73
2023/03/05 01:15:54;;;;;;;13.88;6.28;;;;;;;0.42;100.00;98644.22;4158393;28;20096;-73
2023/03/05 01:17:54;;;;;;;7.65;3.67;;;;;;;0.37;100.00;98636.16;4158136;28;20069;-73
2023/03/05 01:19:55;;;;;;;7.05;3.20;;;;;;;0.36;100.00;98638.06;4159004;28;20055;-73
2023/03/05 01:21:55;;;;;;;8.40;3.17;;;;;;;0.32;100.00;98636.25;4158824;28;20496;-73
2023/03/05 01:23:55;;;;;;;3.17;1.92;;;;;;;0.34;100.00;98642.22;4157937;28;20382;-73
2023/03/05 01:25:57;;;;;;;6.65;2.80;;;;;;;0.33;100.00;98635.16;4158524;28;20132;-73
2023/03/05 01:27:58;;;;;;;6.38;2.28;;;;;;;0.31;100.00;98635.47;4158661;28;20069;-73
2023/03/05 01:29:59;;;;;;;8.15;2.28;;;;;;;0.26;100.00;98630.16;4158282;28;20500;-73
2023/03/05 01:32:01;;;;;;;4.20;1.90;;;;;;;0.25;100.00;98620.38;4158441;28;20040;-73
2023/03/05 01:34:01;;;;;;;6.63;2.22;;;;;;;0.20;100.00;98617.75;4157783;28;20080;-73
2023/03/05 01:36:05;;;;;;;6.18;1.73;;;;;;;0.25;100.00;98629.34;4158274;28;20022;-73
2023/03/05 01:38:05;;;;;;;2.92;1.70;;;;;;;0.21;100.00;98620.16;4158061;28;20106;-73
2023/03/05 01:40:06;;;;;;;6.88;1.55;;;;;;;0.30;100.00;98614.00;4157493;28;20104;-73
2023/03/05 01:42:06;;;;;;;6.05;1.73;;;;;;;0.27;100.00;98624.41;4158454;28;20029;-73
2023/03/05 01:44:19;;;;;;;7.60;2.13;;;;;;;0.26;100.00;98624.72;4157472;28;20400;-73
2023/03/05 01:46:34;;;;;;;6.35;1.67;;;;;;;0.25;100.00;98610.28;4157139;28;20021;-73
2023/03/05 01:48:34;;;;;;;6.90;1.80;;;;;;;0.26;100.00;98620.06;4157951;28;20046;-73
2023/03/05 01:50:35;;;;;;;4.00;1.70;;;;;;;0.19;100.00;98610.72;4158125;28;20056;-73
2023/03/05 01:52:39;;;;;;;4.50;1.92;;;;;;;0.18;100.00;98620.78;4157484;28;20052;-73
2023/03/05 01:54:43;;;;;;;4.03;1.77;;;;;;;0.14;100.00;98606.19;4157949;28;20050;-73
2023/03/05 01:56:47;;;;;;;5.30;1.80;;;;;;;0.18;100.00;98609.09;4158287;28;20241;-73
2023/03/05 01:58:48;;;;;;;6.20;1.77;;;;;;;0.21;100.00;98616.66;4158192;28;20049;-74
2023/03/05 02:00:51;;;;;;;2.72;1.60;;;;;;;0.28;100.00;98619.75;4158225;28;20292;-73
2023/03/05 02:02:52;;;;;;;3.40;1.50;;;;;;;0.29;100.00;98610.47;4157371;28;20116;-73
2023/03/05 02:05:06;;;;;;;4.72;1.50;;;;;;;0.33;100.00;98611.44;4158140;28;20072;-73
2023/03/05 02:07:07;;;;;;;5.90;1.65;;;;;;;0.40;100.00;98609.13;4157850;28;20440;-73
2023/03/05 02:09:08;;;;;;;3.08;1.35;;;;;;;0.42;100.00;98612.34;4157578;28;20049;-73
2023/03/05 02:11:09;;;;;;;6.47;1.85;;;;;;;0.48;100.00;98605.66;4157899;28;20462;-73
2023/03/05 02:13:12;;;;;;;5.45;2.45;;;;;;;0.48;100.00;98608.38;4157471;28;20075;-73
2023/03/05 02:15:13;;;;;;;3.65;1.50;;;;;;;0.50;100.00;98599.94;4158232;28;20494;-73
2023/03/05 02:17:14;;;;;;;3.72;1.48;;;;;;;0.42;100.00;98596.03;4157269;28;20045;-73
2023/03/05 02:19:15;;;;;;;3.88;1.58;;;;;;;0.40;100.00;98583.81;4158030;28;20493;-73
2023/03/05 02:21:26;;;;;;;2.38;1.35;;;;;;;0.41;100.00;98593.59;4158099;28;20137;-73
2023/03/05 02:23:31;;;;;;;1.67;1.13;;;;;;;0.40;100.00;98584.63;4156799;28;20045;-73
2023/03/05 02:25:32;;;;;;;1.95;1.17;;;;;;;0.42;100.00;98576.97;4157534;28;20478;-73
2023/03/05 02:27:35;;;;;;;2.35;0.93;;;;;;;0.50;97.90;98583.59;4158043;28;20092;-73
2023/03/05 02:29:40;;;;;;;2.85;1.10;;;;;;;0.44;97.03;98573.94;4157508;28;20466;-73
2023/03/05 02:31:41;;;;;;;2.03;0.90;;;;;;;0.39;97.16;98572.13;4157588;28;20187;-73
2023/03/05 02:33:41;;;;;;;1.58;0.70;;;;;;;0.35;97.95;98575.78;4157194;28;20084;-73
2023/03/05 02:35:42;;;;;;;1.85;0.73;;;;;;;0.31;99.79;98569.34;4157651;28;20045;-73
2023/03/05 02:37:43;;;;;;;1.80;1.00;;;;;;;0.30;99.61;98563.09;4157167;28;20034;-73
2023/03/05 02:39:43;;;;;;;3.90;1.30;;;;;;;0.27;100.00;98569.16;4157760;28;20415;-73
2023/03/05 02:41:43;;;;;;;2.60;0.80;;;;;;;0.27;99.41;98564.53;4157928;28;20150;-74
2023/03/05 02:43:44;;;;;;;1.55;0.85;;;;;;;0.29;99.50;98564.22;4156922;28;20486;-74
2023/03/05 02:45:44;;;;;;;3.20;1.20;;;;;;;0.25;99.53;98558.59;4157925;28;20060;-73
2023/03/05 02:47:44;;;;;;;1.92;0.90;;;;;;;0.26;99.14;98562.13;4157167;28;20041;-73
2023/03/05 02:49:45;;;;;;;2.83;0.88;;;;;;;0.21;100.00;98554.06;4157806;28;20042;-73
2023/03/05 02:51:45;;;;;;;2.63;0.98;;;;;;;0.19;100.00;98554.38;4157276;28;20046;-73
2023/03/05 02:53:45;;;;;;;1.00;0.80;;;;;;;0.20;100.00;98552.44;4156706;28;20041;-73
2023/03/05 02:55:47;;;;;;;2.72;0.80;;;;;;;0.16;100.00;98546.81;4158322;28;20064;-74
2023/03/05 02:57:47;;;;;;;2.35;1.08;;;;;;;0.13;100.00;98542.00;4157485;28;20045;-73
2023/03/05 02:59:48;;;;;;;1.67;0.90;;;;;;;0.19;100.00;98554.38;4160220;28;20101;-73
2023/03/05 03:01:48;;;;;;;2.40;0.88;;;;;;;0.24;100.00;98545.28;4161095;28;20041;-73
2023/03/05 03:03:48;;;;;;;2.53;0.80;;;;;;;0.25;100.00;98549.63;4160250;28;20088;-73
2023/03/05 03:05:49;;;;;;;2.42;1.10;;;;;;;0.29;100.00;98550.59;4160954;28;20092;-73
2023/03/05 03:07:49;;;;;;;2.60;1.20;;;;;;;0.20;100.00;98550.53;4160424;28;20100;-73
2023/03/05 03:09:49;;;;;;;1.85;0.80;;;;;;;0.24;100.00;98553.44;4160725;28;20501;-73
2023/03/05 03:11:50;;;;;;;2.28;1.05;;;;;;;0.22;100.00;98547.50;4160759;28;20164;-73
2023/03/05 03:13:50;;;;;;;3.50;1.27;;;;;;;0.21;100.00;98545.91;4159669;28;20512;-73
2023/03/05 03:16:00;;;;;;;2.00;0.85;;;;;;;0.21;100.00;98535.81;4160675;28;20389;-74
2023/03/05 03:18:01;;;;;;;2.95;1.10;;;;;;;0.16;100.00;98537.84;4192061;28;20048;-73
2023/03/05 03:20:03;;;;;;;8.73;2.08;;;;;;;0.12;100.00;98529.50;4160930;28;20029;-73
2023/03/05 03:22:04;;;;;;;;;;;;;;;0.20;100.00;98533.41;4160578;28;20493;-73
2023/03/05 03:24:05;;;;;;;1.42;0.90;;;;;;;0.23;100.00;98530.84;4159747;28;20018;-73
2023/03/05 03:26:06;;;;;;;1.10;0.75;;;;;;;0.16;100.00;98530.47;4160778;28;20038;-73
2023/03/05 03:28:06;;;;;;;2.47;0.90;;;;;;;0.19;100.00;98529.09;4160434;28;20057;-73
2023/03/05 03:30:07;;;;;;;3.90;1.05;;;;;;;0.13;100.00;98527.59;4159986;28;20033;-73
2023/03/05 03:32:08;;;;;;;4.65;0.95;;;;;;;0.13;100.00;98525.66;4160173;28;20105;-73
2023/03/05 03:34:08;;;;;;;4.53;0.82;;;;;;;0.27;100.00;98525.63;4159759;28;20025;-73
2023/03/05 03:36:08;;;;;;;3.33;1.15;;;;;;;0.28;100.00;98530.75;4159745;28;20073;-74
2023/03/05 03:38:10;;;;;;;4.40;1.25;;;;;;;0.25;100.00;98536.03;4160387;28;20541;-73
2023/03/05 03:40:11;;;;;;;3.20;1.50;;;;;;;0.26;100.00;98529.47;4160228;28;20148;-73
2023/03/05 03:42:11;;;;;;;3.80;1.55;;;;;;;0.27;100.00;98522.91;4159919;28;20100;-73
2023/03/05 03:44:12;;;;;;;3.70;1.30;;;;;;;0.22;100.00;98523.00;4159607;28;20037;-73
2023/03/05 03:46:13;;;;;;;4.25;1.40;;;;;;;0.18;100.00;98522.84;4159969;28;20041;-73
2023/03/05 03:48:13;;;;;;;3.42;1.75;;;;;;;0.11;100.00;98518.94;4160507;28;20026;-73
2023/03/05 03:50:13;;;;;;;7.07;2.42;;;;;;;0.15;100.00;98522.63;4159925;28;20026;-73
2023/03/05 03:52:14;;;;;;;5.18;1.63;;;;;;;0.09;100.00;98510.28;4159977;28;20424;-73
2023/03/05 03:54:16;;;;;;;2.10;1.10;;;;;;;0.14;100.00;98512.88;4159191;28;20046;-73
2023/03/05 03:56:17;;;;;;;2.72;1.27;;;;;;;0.18;100.00;98511.94;4159764;28;20378;-73
2023/03/05 03:58:17;;;;;;;3.50;1.10;;;;;;;0.20;100.00;98509.72;4159472;28;20064;-73
2023/03/05 04:00:18;;;;;;;1.45;1.10;;;;;;;0.18;100.00;98505.72;4160055;28;20025;-73
2023/03/05 04:02:18;;;;;;;3.53;1.10;;;;;;;0.14;100.00;98510.94;4159523;28;20075;-73
2023/03/05 04:04:19;;;;;;;2.25;0.95;;;;;;;0.10;100.00;98503.72;4159045;28;20108;-73
2023/03/05 04:06:19;;;;;;;1.42;1.27;;;;;;;0.08;100.00;98503.22;4160062;28;20026;-73
2023/03/05 04:08:19;;;;;;;1.42;1.02;;;;;;;0.10;100.00;98501.00;4160188;28;20474;-73
2023/03/05 04:10:20;;;;;;;2.40;1.27;;;;;;;0.10;100.00;98496.38;4158974;28;20052;-73
2023/03/05 04:12:20;;;;;;;1.42;0.93;;;;;;;0.11;100.00;98494.44;4159308;28;20446;-73
2023/03/05 04:14:20;;;;;;;1.75;1.20;;;;;;;0.10;100.00;98492.84;4159141;28;20514;-73
2023/03/05 04:16:21;;;;;;;2.70;1.30;;;;;;;0.08;100.00;98495.84;4159537;28;20129;-73
2023/03/05 04:18:21;;;;;;;1.95;1.08;;;;;;;0.07;100.00;98493.44;4159277;28;20045;-73
2023/03/05 04:20:22;;;;;;;6.88;1.52;;;;;;;0.10;100.00;98492.84;4159253;28;20044;-73
2023/03/05 04:22:22;;;;;;;3.05;1.10;;;;;;;0.07;100.00;98493.44;4159931;28;20041;-73
2023/03/05 04:24:22;;;;;;;1.13;1.00;;;;;;;0.06;100.00;98487.19;4158934;28;20081;-74
2023/03/05 04:26:23;;;;;;;2.83;1.35;;;;;;;0.11;100.00;98483.56;4159349;28;20374;-73
2023/03/05 04:28:23;;;;;;;4.05;2.03;;;;;;;0.08;100.00;98479.53;4159350;28;20598;-73
2023/03/05 04:30:24;;;;;;;5.90;1.65;;;;;;;0.12;100.00;98472.38;4159206;28;20045;-73
2023/03/05 04:32:28;;;;;;;3.05;1.08;;;;;;;0.10;100.00;98476.53;4159103;28;20149;-73
2023/03/05 04:34:29;;;;;;;4.53;1.42;;;;;;;0.08;100.00;98478.72;4158711;28;20160;-73
2023/03/05 04:36:29;;;;;;;4.65;1.52;;;;;;;0.10;100.00;98479.25;4159712;28;20120;-73
2023/03/05 04:38:29;;;;;;;2.65;2.00;;;;;;;0.06;100.00;98470.06;4158791;28;20049;-73
2023/03/05 04:40:30;;;;;;;3.15;1.27;;;;;;;0.06;100.00;98468.16;4159412;28;20512;-73
2023/03/05 04:42:30;;;;;;;3.45;1.50;;;;;;;0.01;100.00;98462.84;4158637;28;20776;-73
2023/03/05 04:44:30;;;;;;;2.92;1.20;;;;;;;-0.01;100.00;98467.78;4158310;28;20570;-73
2023/03/05 04:46:31;;;;;;;5.57;1.90;;;;;;;-0.01;100.00;98467.78;4159211;28;20054;-73
2023/03/05 04:48:31;;;;;;;5.05;1.42;;;;;;;0.04;100.00;98464.16;4159001;28;20064;-73
2023/03/05 04:50:32;;;;;;;3.65;1.40;;;;;;;0.03;100.00;98460.63;4159078;28;20756;-73
2023/03/05 04:52:32;;;;;;;3.35;1.45;;;;;;;-0.03;100.00;98459.13;4158663;28;20105;-73
2023/03/05 04:54:32;;;;;;;2.13;1.00;;;;;;;0.02;100.00;98453.59;4158779;28;20041;-73
2023/03/05 04:56:33;;;;;;;2.22;1.13;;;;;;;0.02;100.00;98456.31;4159635;28;20164;-73
2023/03/05 04:58:33;;;;;;;3.95;1.17;;;;;;;-0.01;100.00;98454.97;4158922;28;20048;-73
2023/03/05 05:00:34;;;;;;;2.70;1.08;;;;;;;-0.07;100.00;98444.56;4158992;28;20107;-73
2023/03/05 05:02:34;;;;;;;1.92;1.02;;;;;;;-0.07;100.00;98456.25;4158959;28;20049;-73
2023/03/05 05:04:35;;;;;;;1.60;1.00;;;;;;;-0.06;100.00;98454.31;4159521;28;20066;-73
2023/03/05 05:06:35;;;;;;;1.80;1.50;;;;;;;-0.10;100.00;98448.69;4158799;28;20045;-73
2023/03/05 05:08:35;;;;;;;1.88;1.08;;;;;;;-0.06;100.00;98444.25;4159129;28;20911;-73
2023/03/05 05:10:38;;;;;;;2.00;0.90;;;;;;;-0.08;100.00;98440.25;4158660;28;20061;-73
2023/03/05 05:12:39;;;;;;;2.45;1.20;;;;;;;-0.11;100.00;98430.75;4157898;28;20045;-73
2023/03/05 05:14:39;;;;;;;2.95;1.17;;;;;;;-0.12;100.00;98433.78;4158861;28;20098;-73
2023/03/05 05:16:40;;;;;;;2.40;1.30;;;;;;;-0.15;100.00;98429.78;4159641;28;20053;-73
2023/03/05 05:18:41;;;;;;;1.30;1.00;;;;;;;-0.06;100.00;98429.84;4158202;28;20437;-73
2023/03/05 05:20:41;;;;;;;3.83;1.40;;;;;;;-0.07;100.00;98433.69;4158153;28;20389;-73
2023/03/05 05:22:42;;;;;;;2.85;1.40;;;;;;;-0.08;100.00;98421.19;4157738;28;20115;-73
2023/03/05 05:24:43;;;;;;;3.22;0.90;;;;;;;-0.02;100.00;98422.66;4158525;28;20482;-73
2023/03/05 05:26:43;;;;;;;1.55;1.02;;;;;;;-0.03;100.00;98423.78;4158769;28;20045;-73
2023/03/05 05:28:43;;;;;;;2.75;1.10;;;;;;;-0.04;100.00;98419.44;4158203;28;20120;-73
2023/03/05 05:30:43;;;;;;;4.18;1.30;;;;;;;-0.01;100.00;98416.09;4158734;28;20467;-73
2023/03/05 05:32:44;;;;;;;1.90;0.98;;;;;;;0.02;100.00;98420.94;4157105;28;20737;-73
2023/03/05 05:34:44;;;;;;;1.63;0.90;;;;;;;0.07;100.00;98409.91;4158254;28;20050;-73
2023/03/05 05:36:44;;;;;;;2.47;1.02;;;;;;;0.06;100.00;98415.66;4158508;28;20140;-73
2023/03/05 05:38:45;;;;;;;1.63;0.77;;;;;;;0.03;100.00;98419.03;4158521;28;20437;-73
2023/03/05 05:40:45;;;;;;;1.70;1.10;;;;;;;0.02;100.00;98423.66;4158198;28;20575;-73
2023/03/05 05:42:45;;;;;;;2.25;0.80;;;;;;;0.02;100.00;98417.41;4157598;28;20059;-73
2023/03/05 05:44:46;;;;;;;1.05;0.80;;;;;;;-0.01;100.00;98427.78;4158373;28;20393;-73
2023/03/05 05:46:46;;;;;;;2.88;1.40;;;;;;;0.08;100.00;98416.16;4157873;28;20436;-73
2023/03/05 05:48:47;;;;;;;1.58;0.90;;;;;;;0.06;100.00;98415.66;4152162;28;20500;-73
2023/03/05 05:50:47;;;;;;;3.42;1.02;;;;;;;-0.02;100.00;98422.66;4152054;28;20445;-73
2023/03/05 05:52:50;;;;;;;1.98;1.08;;;;;;;0.01;100.00;98415.81;4153892;28;20060;-73
2023/03/05 05:54:50;;;;;;;3.22;1.45;;;;;;;-0.02;100.00;98422.66;4151304;28;20046;-73
2023/03/05 05:56:50;;;;;;;2.22;1.30;;;;;;;-0.03;100.00;98424.56;4155073;28;20045;-73
2023/03/05 05:58:51;;;;;;;4.75;1.52;;;;;;;-0.01;100.00;98422.34;4154266;28;20045;-73
2023/03/05 06:00:51;;;;;;;1.70;0.98;;;;;;;0.02;100.00;98418.22;4156463;28;20029;-73
2023/03/05 06:02:52;;;;;;;3.42;1.77;;;;;;;0.02;100.00;98406.53;4154830;28;20363;-73
2023/03/05 06:04:52;;;;;;;5.28;1.48;;;;;;;-0.01;100.00;98413.38;4156876;28;20500;-73
2023/03/05 06:06:52;;;;;;;2.35;1.20;;;;;;;-0.04;100.00;98416.72;4155365;28;20608;-73
2023/03/05 06:08:54;;;;;;;4.25;1.25;;;;;;;-0.05;100.00;98421.38;4156728;28;20128;-73
2023/03/05 06:10:55;;;;;;;4.40;1.50;;;;;;;-0.05;100.00;98421.38;4156992;28;20068;-73
2023/03/05 06:12:55;;;;;;;2.85;1.35;;;;;;;-0.03;100.00;98423.78;4153761;28;20445;-73
2023/03/05 06:14:56;;;;;;;2.58;1.08;;;;;;;-0.04;100.00;98427.63;4156036;28;20061;-73
2023/03/05 06:16:56;;;;;;;3.78;1.20;;;;;;;0.02;100.00;98420.13;4156393;28;20504;-73
2023/03/05 06:18:57;;;;;;;5.20;2.08;;;;;;;0.04;100.00;98428.78;4156555;28;20521;-73
2023/03/05 06:21:02;;;;;;;3.10;1.40;;;;;;;0.08;100.00;98427.84;4128870;28;20310;-73
2023/03/05 06:23:02;;;;;;;3.55;1.52;;;;;;;0.07;100.00;98425.44;4079405;28;20048;-73
2023/03/05 06:25:05;;;;;;;2.33;1.30;;;;;;;0.08;100.00;98424.31;4156608;28;20529;-73
2023/03/05 06:27:05;;;;;;;1.90;1.30;;;;;;;0.07;100.00;98422.72;4156849;28;20077;-73
2023/03/05 06:29:06;;;;;;;2.15;1.23;;;;;;;0.04;100.00;98423.34;4155398;28;20073;-73
2023/03/05 06:31:12;;;;;;;3.10;1.45;;;;;;;0.10;100.00;98428.34;4155600;28;20107;-73
2023/03/05 06:33:13;;;;;;;7.63;2.95;;;;;;;0.03;100.00;98433.44;4157268;28;20053;-73
2023/03/05 06:35:13;;;;;;;2.95;1.35;;;;;;;0.04;100.00;98426.88;4162073;28;20041;-73
2023/03/05 06:37:13;;;;;;;4.63;1.58;;;;;;;0.07;100.00;98431.69;4161989;28;20037;-73
2023/03/05 06:39:14;;;;;;;2.63;1.20;;;;;;;0.14;100.00;98428.53;4161639;28;20069;-73
2023/03/05 06:41:20;;;;;;;2.65;1.48;;;;;;;0.16;100.00;98421.66;4162017;28;20041;-73
2023/03/05 06:43:20;;;;;;;3.22;1.25;;;;;;;0.16;100.00;98409.97;4161706;28;20064;-73
2023/03/05 06:45:20;;;;;;;2.47;1.50;;;;;;;0.16;100.00;98412.69;4161684;28;20113;-73
2023/03/05 06:47:21;;;;;;;3.60;1.40;;;;;;;0.11;100.00;98410.91;4162203;28;20037;-73
2023/03/05 06:49:21;;;;;;;3.38;1.60;;;;;;;0.14;100.00;98420.38;4161439;28;20049;-73
2023/03/05 06:51:26;;;;;;;1.83;1.50;;;;;;;0.21;100.00;98418.00;4160075;28;20128;-73
2023/03/05 06:53:27;;;;;;;6.55;1.75;;;;;;;0.19;100.00;98418.31;4157897;28;20071;-73
2023/03/05 06:55:27;;;;;;;3.70;1.50;;;;;;;0.18;100.00;98418.63;4161186;28;20559;-73
2023/03/05 06:57:27;;;;;;;3.10;1.77;;;;;;;0.17;100.00;98411.59;4159456;28;20053;-73
2023/03/05 06:59:28;;;;;;;11.57;2.08;;;;;;;0.14;100.00;98418.44;4157586;28;20095;-73
2023/03/05 07:01:28;;;;;;;3.10;1.38;;;;;;;0.25;100.00;98416.28;4161127;28;20056;-73
2023/03/05 07:03:29;;;;;;;4.82;1.40;;;;;;;0.40;100.00;98413.13;4159739;28;20128;-73
2023/03/05 07:05:29;;;;;;;3.15;1.73;;;;;;;0.37;100.00;98413.78;4162252;28;20041;-73
2023/03/05 07:07:29;;;;;;;2.83;1.55;;;;;;;0.39;100.00;98411.53;4162024;28;20248;-73
2023/03/05 07:09:30;;;;;;;3.90;2.03;;;;;;;0.39;100.00;98414.25;4161564;28;20080;-73
2023/03/05 07:11:31;;;;;;;4.13;1.80;;;;;;;0.40;100.00;98410.41;4161670;28;20428;-73
2023/03/05 07:13:31;;;;;;;7.20;2.78;;;;;;;0.42;100.00;98412.84;4160755;28;20049;-73
2023/03/05 07:15:32;;;;;;;10.85;3.92;;;;;;;0.42;100.00;98410.13;4161956;28;20041;-73
2023/03/05 07:17:32;;;;;;;6.88;2.80;;;;;;;0.50;100.00;98404.72;4162001;28;20076;-73
2023/03/05 07:19:32;;;;;;;8.38;2.88;;;;;;;0.54;100.00;98402.97;4161550;28;20482;-73
2023/03/05 07:21:34;;;;;;;5.38;2.60;;;;;;;0.57;100.00;98405.03;4159783;28;20588;-73
2023/03/05 07:23:34;;;;;;;6.38;2.33;;;;;;;0.62;100.00;98400.59;4097125;28;20061;-73
2023/03/05 07:25:36;;;;;;;9.63;3.15;;;;;;;0.57;100.00;98407.78;4157096;28;20120;-73
2023/03/05 07:27:36;;;;;;;6.53;2.45;;;;;;;0.59;100.00;98396.59;4161785;28;20130;-73
2023/03/05 07:29:37;;;;;;;4.05;2.25;;;;;;;0.63;100.00;98392.09;4161716;28;20473;-73
2023/03/05 07:31:37;;;;;;;4.13;2.10;;;;;;;0.63;100.00;98400.28;4161438;28;20544;-73
2023/03/05 07:33:38;;;;;;;4.32;2.35;;;;;;;0.62;100.00;98400.59;4160409;28;20506;-73
2023/03/05 07:35:40;;;;;;;6.70;2.72;;;;;;;0.62;100.00;98398.66;4156741;28;20126;-73
2023/03/05 07:37:40;;;;;;;6.57;2.20;;;;;;;0.64;100.00;98404.59;4161377;28;20057;-73
2023/03/05 07:39:40;;;;;;;3.60;2.03;;;;;;;0.65;100.00;98402.69;4161775;28;20040;-73
2023/03/05 07:41:41;;;;;;;3.75;2.38;;;;;;;0.69;100.00;98401.75;4161213;28;20048;-73
2023/03/05 07:43:41;;;;;;;5.38;2.30;;;;;;;0.68;100.00;98404.78;4159890;28;20042;-73
2023/03/05 07:45:43;;;;;;;3.65;2.10;;;;;;;0.69;100.00;98399.03;4158511;28;20497;-73
2023/03/05 07:47:43;;;;;;;4.47;1.77;;;;;;;0.68;100.00;98397.41;4158546;28;20049;-73
2023/03/05 07:49:43;;;;;;;4.10;1.90;;;;;;;0.74;100.00;98400.78;4159218;28;20375;-73
2023/03/05 07:51:44;;;;;;;4.60;2.03;;;;;;;0.78;100.00;98405.28;4158976;28;20409;-73
2023/03/05 07:53:46;;;;;;;3.88;2.00;;;;;;;0.78;100.00;98396.31;4157389;28;20176;-73
2023/03/05 07:55:46;;;;;;;3.00;2.10;;;;;;;0.79;100.00;98401.44;4157134;28;20058;-73
2023/03/05 07:57:46;;;;;;;3.28;1.80;;;;;;;0.78;99.95;98402.56;4157281;28;20045;-73
2023/03/05 07:59:48;;;;;;;2.13;1.30;;;;;;;0.75;98.91;98394.25;4159236;28;20092;-73
2023/03/05 08:01:48;;;;;;;6.03;1.85;;;;;;;0.84;99.11;98395.88;4156230;28;20056;-73
2023/03/05 08:03:48;;;;;;;3.28;1.73;;;;;;;0.81;100.00;98392.97;4156685;28;20057;-73
2023/03/05 08:05:49;;;;;;;8.35;2.55;;;;;;;0.81;100.00;98396.47;4158387;28;20049;-73
2023/03/05 08:07:49;;;;;;;4.20;2.58;;;;;;;0.76;100.00;98391.19;4153650;28;20041;-73
2023/03/05 08:09:50;;;;;;;3.50;2.25;;;;;;;0.70;100.00;98389.72;4158271;28;20490;-73
2023/03/05 08:11:50;;;;;;;3.97;3.10;;;;;;;0.78;100.00;98390.88;4156838;28;20088;-73
2023/03/05 08:13:50;;;;;;;5.07;2.50;;;;;;;0.80;100.00;98381.25;4158108;28;20029;-73
2023/03/05 08:15:51;;;;;;;7.40;3.30;;;;;;;0.83;100.00;98380.66;4158229;28;20445;-73
2023/03/05 08:17:52;;;;;;;8.38;4.53;;;;;;;0.82;100.00;98381.75;4157003;28;20049;-73
2023/03/05 08:19:56;;;;;;;10.90;5.28;;;;;;;0.77;100.00;98375.66;4159177;28;20037;-73
2023/03/05 08:21:56;;;;;;;13.57;5.38;;;;;;;0.81;100.00;98379.34;4158606;28;20045;-73
2023/03/05 08:23:57;;;;;;;7.60;4.05;;;;;;;0.78;100.00;98379.97;4158369;28;20592;-73
2023/03/05 08:25:57;;;;;;;6.65;3.97;;;;;;;0.75;100.00;98375.19;4158588;28;20489;-73
2023/03/05 08:27:59;;;;;;;6.40;3.22;;;;;;;0.78;100.00;98379.97;4158986;28;20096;-73
2023/03/05 08:30:01;;;;;;;15.55;8.23;;;;;;;0.82;100.00;98384.47;4158786;28;20071;-73
2023/03/05 08:32:01;;;;;;;8.23;3.80;;;;;;;0.80;100.00;98385.91;4158725;28;20099;-73
2023/03/05 08:34:03;;;;;;;7.07;3.60;;;;;;;0.79;100.00;98370.69;4158278;28;20025;-73
2023/03/05 08:36:04;;;;;;;10.63;5.03;;;;;;;0.83;100.00;98385.31;4159192;28;20030;-73
2023/03/05 08:38:05;;;;;;;5.35;3.28;;;;;;;0.84;100.00;98382.25;4158596;28;20075;-73
2023/03/05 08:40:06;;;;;;;14.05;7.72;;;;;;;0.81;100.00;98382.88;4159235;28;20152;-73
2023/03/05 08:42:07;;;;;;;18.23;8.57;;;;;;;0.85;100.00;98374.88;4158470;28;20339;-73
2023/03/05 08:44:07;;;;;;;13.02;7.10;;;;;;;0.81;100.00;98369.25;4158642;28;20029;-73
2023/03/05 08:46:10;;;;;;;7.63;4.20;;;;;;;0.83;100.00;98372.47;4158231;28;20037;-73
2023/03/05 08:48:10;;;;;;;10.00;3.75;;;;;;;0.86;100.00;98376.47;4158484;28;20033;-73
2023/03/05 08:50:11;;;;;;;15.95;6.15;;;;;;;0.85;100.00;98372.16;4159229;28;20057;-73
2023/03/05 08:52:12;;;;;;;8.18;4.03;;;;;;;0.83;100.00;98377.13;4158419;28;20026;-73
2023/03/05 08:54:12;;;;;;;9.27;4.45;;;;;;;0.87;100.00;98375.38;4158349;28;20112;-73
2023/03/05 08:56:13;;;;;;;9.52;4.80;;;;;;;0.84;100.00;98376.81;4156725;28;20365;-73
2023/03/05 08:58:13;;;;;;;12.38;4.20;;;;;;;0.87;100.00;98377.28;4158286;28;20378;-73
2023/03/05 09:00:14;;;;;;;17.35;7.50;;;;;;;0.90;100.00;98368.47;4158686;28;20276;-73
2023/03/05 09:02:15;;;;;;;7.60;4.15;;;;;;;0.88;100.00;98368.78;4158816;28;20045;-73
2023/03/05 09:04:15;;;;;;;7.93;5.20;;;;;;;0.88;100.00;98368.78;4157872;28;20087;-73
2023/03/05 09:06:15;;;;;;;4.72;2.95;;;;;;;0.91;100.00;98370.91;4158300;28;20029;-73
2023/03/05 09:08:16;;;;;;;11.98;4.03;;;;;;;0.90;100.00;98372.00;4158248;28;20458;-73
2023/03/05 09:10:17;;;;;;;5.43;2.33;;;;;;;0.95;100.00;98369.13;4158219;28;20422;-73
2023/03/05 09:12:17;;;;;;;5.50;2.80;;;;;;;1.03;100.00;98362.09;4158389;28;20048;-73
2023/03/05 09:14:17;;;;;;;5.30;3.15;;;;;;;0.98;100.00;98351.34;4157351;28;20462;-73
2023/03/05 09:16:18;;;;;;;4.40;2.22;;;;;;;1.04;100.00;98359.03;4157738;28;20057;-73
2023/03/05 09:18:20;;;;;;;5.78;2.65;;;;;;;1.08;100.00;98342.88;4158536;28;20033;-73
2023/03/05 09:20:20;;;;;;;4.55;2.42;;;;;;;1.09;100.00;98345.28;4157722;28;20026;-73
2023/03/05 09:22:21;;;;;;;4.32;2.10;;;;;;;1.13;100.00;98343.50;4158427;28;20128;-73
2023/03/05 09:24:21;;;;;;;6.30;3.05;;;;;;;1.21;100.00;98336.47;4156089;28;20050;-73
2023/03/05 09:26:22;;;;;;;7.18;3.50;;;;;;;1.34;100.00;98343.69;4157795;28;20053;-73
2023/03/05 09:28:22;;;;;;;8.32;3.92;;;;;;;1.42;100.00;98344.81;4158212;28;20051;-73